sensor_id;sensor_type;location;lat;lon;timestamp;P1;durP1;ratioP1;P2;durP2;ratioP2
78143;SDS011;67394;52.522;13.622;2023-03-01T00:00:21;11.50;;;6.00;;
78143;SDS011;67394;52.522;13.622;2023-03-01T00:02:48;9.68;;;5.65;;
78143;SDS011;67394;52.522;13.622;2023-03-01T00:05:14;10.57;;;6.22;;
78143;SDS011;67394;52.522;13.622;2023-03-01T00:07:40;11.40;;;6.07;;
78143;SDS011;67394;52.522;13.622;2023-03-01T00:10:07;8.73;;;5.55;;
78143;SDS011;67394;52.522;13.622;2023-03-01T00:12:34;8.85;;;6.03;;
78143;SDS011;67394;52.522;13.622;2023-03-01T00:15:00;10.80;;;5.75;;
78143;SDS011;67394;52.522;13.622;2023-03-01T00:17:27;8.95;;;5.40;;
78143;SDS011;67394;52.522;13.622;2023-03-01T00:19:53;9.15;;;5.57;;
78143;SDS011;67394;52.522;13.622;2023-03-01T00:22:20;11.80;;;6.60;;
78143;SDS011;67394;52.522;13.622;2023-03-01T00:24:46;11.45;;;6.22;;
78143;SDS011;67394;52.522;13.622;2023-03-01T00:27:13;8.27;;;5.25;;
78143;SDS011;67394;52.522;13.622;2023-03-01T00:29:39;10.95;;;5.18;;
78143;SDS011;67394;52.522;13.622;2023-03-01T00:32:05;9.32;;;5.55;;
78143;SDS011;67394;52.522;13.622;2023-03-01T00:34:31;9.43;;;5.60;;
78143;SDS011;67394;52.522;13.622;2023-03-01T00:36:58;10.23;;;5.32;;
78143;SDS011;67394;52.522;13.622;2023-03-01T00:39:24;9.52;;;5.78;;
78143;SDS011;67394;52.522;13.622;2023-03-01T00:41:50;8.43;;;5.72;;
78143;SDS011;67394;52.522;13.622;2023-03-01T00:44:17;6.80;;;5.35;;
78143;SDS011;67394;52.522;13.622;2023-03-01T00:46:43;8.75;;;5.25;;
78143;SDS011;67394;52.522;13.622;2023-03-01T00:49:09;9.82;;;5.72;;
78143;SDS011;67394;52.522;13.622;2023-03-01T00:51:36;9.88;;;5.82;;
78143;SDS011;67394;52.522;13.622;2023-03-01T00:54:02;10.88;;;6.35;;
78143;SDS011;67394;52.522;13.622;2023-03-01T00:56:29;9.52;;;5.22;;
78143;SDS011;67394;52.522;13.622;2023-03-01T00:58:56;9.85;;;5.57;;
78143;SDS011;67394;52.522;13.622;2023-03-01T01:01:24;13.38;;;5.88;;
78143;SDS011;67394;52.522;13.622;2023-03-01T01:03:57;9.50;;;6.07;;
78143;SDS011;67394;52.522;13.622;2023-03-01T01:06:29;9.93;;;4.82;;
78143;SDS011;67394;52.522;13.622;2023-03-01T01:08:58;10.30;;;5.30;;
78143;SDS011;67394;52.522;13.622;2023-03-01T01:11:26;9.40;;;5.32;;
78143;SDS011;67394;52.522;13.622;2023-03-01T01:13:54;9.55;;;5.10;;
78143;SDS011;67394;52.522;13.622;2023-03-01T01:16:21;10.18;;;4.82;;
78143;SDS011;67394;52.522;13.622;2023-03-01T01:18:49;8.98;;;5.00;;
78143;SDS011;67394;52.522;13.622;2023-03-01T01:21:18;8.93;;;5.72;;
78143;SDS011;67394;52.522;13.622;2023-03-01T01:23:46;10.32;;;5.53;;
78143;SDS011;67394;52.522;13.622;2023-03-01T01:26:14;8.50;;;5.10;;
78143;SDS011;67394;52.522;13.622;2023-03-01T01:28:53;10.20;;;5.22;;
78143;SDS011;67394;52.522;13.622;2023-03-01T01:31:20;9.80;;;5.47;;
78143;SDS011;67394;52.522;13.622;2023-03-01T01:33:47;8.70;;;5.03;;
78143;SDS011;67394;52.522;13.622;2023-03-01T01:36:13;8.95;;;5.93;;
78143;SDS011;67394;52.522;13.622;2023-03-01T01:38:39;9.20;;;5.07;;
78143;SDS011;67394;52.522;13.622;2023-03-01T01:41:06;10.65;;;5.57;;
78143;SDS011;67394;52.522;13.622;2023-03-01T01:43:34;12.60;;;5.43;;
78143;SDS011;67394;52.522;13.622;2023-03-01T01:46:04;9.52;;;5.25;;
78143;SDS011;67394;52.522;13.622;2023-03-01T01:48:43;8.18;;;4.88;;
78143;SDS011;67394;52.522;13.622;2023-03-01T01:51:13;8.50;;;5.05;;
78143;SDS011;67394;52.522;13.622;2023-03-01T01:53:45;10.00;;;5.13;;
78143;SDS011;67394;52.522;13.622;2023-03-01T01:56:19;8.95;;;4.75;;
78143;SDS011;67394;52.522;13.622;2023-03-01T01:58:47;8.48;;;5.28;;
78143;SDS011;67394;52.522;13.622;2023-03-01T02:01:14;10.10;;;4.85;;
78143;SDS011;67394;52.522;13.622;2023-03-01T02:03:40;11.55;;;5.40;;
78143;SDS011;67394;52.522;13.622;2023-03-01T02:06:15;12.38;;;5.15;;
78143;SDS011;67394;52.522;13.622;2023-03-01T02:08:43;8.38;;;4.88;;
78143;SDS011;67394;52.522;13.622;2023-03-01T02:11:11;8.18;;;4.95;;
78143;SDS011;67394;52.522;13.622;2023-03-01T02:13:39;8.32;;;5.03;;
78143;SDS011;67394;52.522;13.622;2023-03-01T02:18:39;10.13;;;5.03;;
78143;SDS011;67394;52.522;13.622;2023-03-01T02:23:52;9.07;;;5.18;;
78143;SDS011;67394;52.522;13.622;2023-03-01T02:29:02;8.00;;;5.20;;
78143;SDS011;67394;52.522;13.622;2023-03-01T02:31:29;9.40;;;4.63;;
78143;SDS011;67394;52.522;13.622;2023-03-01T02:33:55;8.55;;;5.43;;
78143;SDS011;67394;52.522;13.622;2023-03-01T02:38:51;10.23;;;5.15;;
78143;SDS011;67394;52.522;13.622;2023-03-01T02:41:21;8.43;;;5.03;;
78143;SDS011;67394;52.522;13.622;2023-03-01T02:43:50;5.85;;;4.60;;
78143;SDS011;67394;52.522;13.622;2023-03-01T02:46:18;8.02;;;4.70;;
78143;SDS011;67394;52.522;13.622;2023-03-01T02:48:47;7.97;;;5.18;;
78143;SDS011;67394;52.522;13.622;2023-03-01T02:56:59;10.57;;;5.63;;
78143;SDS011;67394;52.522;13.622;2023-03-01T02:59:28;9.73;;;5.15;;
78143;SDS011;67394;52.522;13.622;2023-03-01T03:01:56;10.40;;;5.53;;
78143;SDS011;67394;52.522;13.622;2023-03-01T03:04:22;10.00;;;5.38;;
78143;SDS011;67394;52.522;13.622;2023-03-01T03:06:49;11.48;;;5.53;;
78143;SDS011;67394;52.522;13.622;2023-03-01T03:11:43;10.88;;;4.60;;
78143;SDS011;67394;52.522;13.622;2023-03-01T03:14:11;11.00;;;5.40;;
78143;SDS011;67394;52.522;13.622;2023-03-01T03:16:40;7.85;;;4.90;;
78143;SDS011;67394;52.522;13.622;2023-03-01T03:19:11;5.70;;;4.18;;
78143;SDS011;67394;52.522;13.622;2023-03-01T03:21:38;7.63;;;4.63;;
78143;SDS011;67394;52.522;13.622;2023-03-01T03:24:05;8.93;;;5.03;;
78143;SDS011;67394;52.522;13.622;2023-03-01T03:26:31;10.38;;;5.10;;
78143;SDS011;67394;52.522;13.622;2023-03-01T03:28:58;9.38;;;5.32;;
78143;SDS011;67394;52.522;13.622;2023-03-01T03:31:25;9.15;;;5.72;;
78143;SDS011;67394;52.522;13.622;2023-03-01T03:33:51;8.05;;;4.72;;
78143;SDS011;67394;52.522;13.622;2023-03-01T03:36:19;10.70;;;6.18;;
78143;SDS011;67394;52.522;13.622;2023-03-01T03:38:47;7.82;;;4.90;;
78143;SDS011;67394;52.522;13.622;2023-03-01T03:41:13;8.57;;;5.55;;
78143;SDS011;67394;52.522;13.622;2023-03-01T03:43:40;8.70;;;5.40;;
78143;SDS011;67394;52.522;13.622;2023-03-01T03:46:08;10.40;;;5.90;;
78143;SDS011;67394;52.522;13.622;2023-03-01T03:48:37;10.20;;;5.82;;
78143;SDS011;67394;52.522;13.622;2023-03-01T03:51:06;9.02;;;5.80;;
78143;SDS011;67394;52.522;13.622;2023-03-01T03:53:35;11.63;;;5.57;;
78143;SDS011;67394;52.522;13.622;2023-03-01T03:56:01;7.55;;;4.80;;
78143;SDS011;67394;52.522;13.622;2023-03-01T03:58:28;9.75;;;5.65;;
78143;SDS011;67394;52.522;13.622;2023-03-01T04:00:55;7.25;;;5.32;;
78143;SDS011;67394;52.522;13.622;2023-03-01T04:03:23;8.38;;;5.07;;
78143;SDS011;67394;52.522;13.622;2023-03-01T04:05:51;9.02;;;5.15;;
78143;SDS011;67394;52.522;13.622;2023-03-01T04:08:21;7.28;;;5.07;;
78143;SDS011;67394;52.522;13.622;2023-03-01T04:10:49;12.82;;;5.47;;
78143;SDS011;67394;52.522;13.622;2023-03-01T04:13:22;12.02;;;5.97;;
78143;SDS011;67394;52.522;13.622;2023-03-01T04:15:49;9.00;;;5.22;;
78143;SDS011;67394;52.522;13.622;2023-03-01T04:18:16;7.45;;;4.75;;
78143;SDS011;67394;52.522;13.622;2023-03-01T04:20:43;9.52;;;5.30;;
78143;SDS011;67394;52.522;13.622;2023-03-01T04:23:14;10.63;;;5.53;;
78143;SDS011;67394;52.522;13.622;2023-03-01T04:25:45;9.40;;;5.32;;
78143;SDS011;67394;52.522;13.622;2023-03-01T04:28:12;8.82;;;5.50;;
78143;SDS011;67394;52.522;13.622;2023-03-01T04:30:38;9.73;;;4.53;;
78143;SDS011;67394;52.522;13.622;2023-03-01T04:33:05;9.05;;;5.40;;
78143;SDS011;67394;52.522;13.622;2023-03-01T04:35:33;9.65;;;5.97;;
78143;SDS011;67394;52.522;13.622;2023-03-01T04:38:01;8.38;;;5.60;;
78143;SDS011;67394;52.522;13.622;2023-03-01T04:40:27;9.45;;;6.10;;
78143;SDS011;67394;52.522;13.622;2023-03-01T04:42:54;9.10;;;4.72;;
78143;SDS011;67394;52.522;13.622;2023-03-01T04:45:20;9.30;;;5.80;;
78143;SDS011;67394;52.522;13.622;2023-03-01T04:47:47;9.80;;;5.93;;
78143;SDS011;67394;52.522;13.622;2023-03-01T04:50:14;11.80;;;5.72;;
78143;SDS011;67394;52.522;13.622;2023-03-01T04:52:43;11.65;;;5.85;;
78143;SDS011;67394;52.522;13.622;2023-03-01T04:55:10;8.60;;;5.18;;
78143;SDS011;67394;52.522;13.622;2023-03-01T04:57:36;8.25;;;5.75;;
78143;SDS011;67394;52.522;13.622;2023-03-01T05:00:04;10.88;;;5.82;;
78143;SDS011;67394;52.522;13.622;2023-03-01T05:02:32;11.05;;;6.00;;
78143;SDS011;67394;52.522;13.622;2023-03-01T05:04:58;11.55;;;6.65;;
78143;SDS011;67394;52.522;13.622;2023-03-01T05:07:24;10.45;;;5.45;;
78143;SDS011;67394;52.522;13.622;2023-03-01T05:09:51;9.05;;;5.28;;
78143;SDS011;67394;52.522;13.622;2023-03-01T05:12:20;8.98;;;5.45;;
78143;SDS011;67394;52.522;13.622;2023-03-01T05:14:46;9.52;;;5.80;;
78143;SDS011;67394;52.522;13.622;2023-03-01T05:17:12;7.78;;;5.75;;
78143;SDS011;67394;52.522;13.622;2023-03-01T05:19:39;13.15;;;6.20;;
78143;SDS011;67394;52.522;13.622;2023-03-01T05:22:08;11.05;;;5.88;;
78143;SDS011;67394;52.522;13.622;2023-03-01T05:24:34;7.57;;;5.65;;
78143;SDS011;67394;52.522;13.622;2023-03-01T05:27:01;10.48;;;6.65;;
78143;SDS011;67394;52.522;13.622;2023-03-01T05:29:29;10.60;;;5.60;;
78143;SDS011;67394;52.522;13.622;2023-03-01T05:31:58;9.52;;;5.72;;
78143;SDS011;67394;52.522;13.622;2023-03-01T05:34:26;9.50;;;6.95;;
78143;SDS011;67394;52.522;13.622;2023-03-01T05:36:54;11.63;;;6.75;;
78143;SDS011;67394;52.522;13.622;2023-03-01T05:39:21;9.93;;;5.80;;
78143;SDS011;67394;52.522;13.622;2023-03-01T05:41:53;12.15;;;5.82;;
78143;SDS011;67394;52.522;13.622;2023-03-01T05:44:20;13.10;;;6.70;;
78143;SDS011;67394;52.522;13.622;2023-03-01T05:46:46;11.90;;;6.43;;
78143;SDS011;67394;52.522;13.622;2023-03-01T05:49:13;9.48;;;5.72;;
78143;SDS011;67394;52.522;13.622;2023-03-01T05:51:40;10.65;;;6.47;;
78143;SDS011;67394;52.522;13.622;2023-03-01T05:54:07;10.77;;;6.40;;
78143;SDS011;67394;52.522;13.622;2023-03-01T05:56:35;10.95;;;6.38;;
78143;SDS011;67394;52.522;13.622;2023-03-01T05:59:03;8.68;;;6.07;;
78143;SDS011;67394;52.522;13.622;2023-03-01T06:01:30;9.13;;;5.65;;
78143;SDS011;67394;52.522;13.622;2023-03-01T06:04:00;11.85;;;6.88;;
78143;SDS011;67394;52.522;13.622;2023-03-01T06:06:28;10.90;;;6.63;;
78143;SDS011;67394;52.522;13.622;2023-03-01T06:08:54;10.23;;;6.75;;
78143;SDS011;67394;52.522;13.622;2023-03-01T06:11:21;11.63;;;6.45;;
78143;SDS011;67394;52.522;13.622;2023-03-01T06:13:48;11.57;;;6.78;;
78143;SDS011;67394;52.522;13.622;2023-03-01T06:16:14;9.93;;;6.10;;
78143;SDS011;67394;52.522;13.622;2023-03-01T06:18:41;10.70;;;6.57;;
78143;SDS011;67394;52.522;13.622;2023-03-01T06:21:07;11.43;;;6.78;;
78143;SDS011;67394;52.522;13.622;2023-03-01T06:23:35;10.38;;;6.97;;
78143;SDS011;67394;52.522;13.622;2023-03-01T06:26:04;14.15;;;6.72;;
78143;SDS011;67394;52.522;13.622;2023-03-01T06:28:33;11.10;;;6.63;;
78143;SDS011;67394;52.522;13.622;2023-03-01T06:30:59;11.82;;;7.35;;
78143;SDS011;67394;52.522;13.622;2023-03-01T06:33:25;11.55;;;6.22;;
78143;SDS011;67394;52.522;13.622;2023-03-01T06:35:54;10.02;;;6.53;;
78143;SDS011;67394;52.522;13.622;2023-03-01T06:38:21;10.38;;;6.55;;
78143;SDS011;67394;52.522;13.622;2023-03-01T06:40:54;9.50;;;6.38;;
78143;SDS011;67394;52.522;13.622;2023-03-01T06:43:21;10.30;;;6.50;;
78143;SDS011;67394;52.522;13.622;2023-03-01T06:45:47;13.35;;;7.28;;
78143;SDS011;67394;52.522;13.622;2023-03-01T06:48:14;12.50;;;7.00;;
78143;SDS011;67394;52.522;13.622;2023-03-01T06:50:40;11.43;;;7.00;;
78143;SDS011;67394;52.522;13.622;2023-03-01T06:53:06;15.07;;;7.47;;
78143;SDS011;67394;52.522;13.622;2023-03-01T06:55:33;11.80;;;7.75;;
78143;SDS011;67394;52.522;13.622;2023-03-01T06:58:00;13.18;;;7.72;;
78143;SDS011;67394;52.522;13.622;2023-03-01T07:00:28;14.43;;;9.05;;
78143;SDS011;67394;52.522;13.622;2023-03-01T07:02:54;16.52;;;9.57;;
78143;SDS011;67394;52.522;13.622;2023-03-01T07:05:23;16.58;;;9.30;;
78143;SDS011;67394;52.522;13.622;2023-03-01T07:07:50;15.25;;;8.98;;
78143;SDS011;67394;52.522;13.622;2023-03-01T07:10:16;16.67;;;9.52;;
78143;SDS011;67394;52.522;13.622;2023-03-01T07:12:43;16.00;;;9.85;;
78143;SDS011;67394;52.522;13.622;2023-03-01T07:15:09;17.40;;;9.55;;
78143;SDS011;67394;52.522;13.622;2023-03-01T07:17:36;15.30;;;10.45;;
78143;SDS011;67394;52.522;13.622;2023-03-01T07:20:02;19.95;;;9.25;;
78143;SDS011;67394;52.522;13.622;2023-03-01T07:22:29;17.05;;;9.60;;
78143;SDS011;67394;52.522;13.622;2023-03-01T07:24:55;18.40;;;9.95;;
78143;SDS011;67394;52.522;13.622;2023-03-01T07:27:22;21.98;;;10.45;;
78143;SDS011;67394;52.522;13.622;2023-03-01T07:29:48;18.33;;;9.80;;
78143;SDS011;67394;52.522;13.622;2023-03-01T07:32:14;15.32;;;10.00;;
78143;SDS011;67394;52.522;13.622;2023-03-01T07:34:41;20.60;;;11.98;;
78143;SDS011;67394;52.522;13.622;2023-03-01T07:37:07;28.52;;;14.77;;
78143;SDS011;67394;52.522;13.622;2023-03-01T07:39:33;19.13;;;10.68;;
78143;SDS011;67394;52.522;13.622;2023-03-01T07:42:00;18.85;;;10.27;;
78143;SDS011;67394;52.522;13.622;2023-03-01T07:44:26;20.60;;;10.43;;
78143;SDS011;67394;52.522;13.622;2023-03-01T07:46:52;15.85;;;10.38;;
78143;SDS011;67394;52.522;13.622;2023-03-01T07:49:19;18.13;;;10.30;;
78143;SDS011;67394;52.522;13.622;2023-03-01T07:51:45;23.75;;;11.35;;
78143;SDS011;67394;52.522;13.622;2023-03-01T07:54:11;19.15;;;10.65;;
78143;SDS011;67394;52.522;13.622;2023-03-01T07:56:38;19.95;;;10.70;;
78143;SDS011;67394;52.522;13.622;2023-03-01T07:59:04;15.35;;;10.00;;
78143;SDS011;67394;52.522;13.622;2023-03-01T08:01:30;17.40;;;10.10;;
78143;SDS011;67394;52.522;13.622;2023-03-01T08:03:57;18.25;;;10.40;;
78143;SDS011;67394;52.522;13.622;2023-03-01T08:06:23;18.65;;;9.85;;
78143;SDS011;67394;52.522;13.622;2023-03-01T08:08:49;15.48;;;9.77;;
78143;SDS011;67394;52.522;13.622;2023-03-01T08:11:16;16.27;;;10.05;;
78143;SDS011;67394;52.522;13.622;2023-03-01T08:13:42;14.30;;;9.00;;
78143;SDS011;67394;52.522;13.622;2023-03-01T08:16:14;12.52;;;8.00;;
78143;SDS011;67394;52.522;13.622;2023-03-01T08:18:42;11.27;;;7.72;;
78143;SDS011;67394;52.522;13.622;2023-03-01T08:21:10;15.80;;;8.43;;
78143;SDS011;67394;52.522;13.622;2023-03-01T08:23:38;11.90;;;7.95;;
78143;SDS011;67394;52.522;13.622;2023-03-01T08:26:10;13.27;;;8.40;;
78143;SDS011;67394;52.522;13.622;2023-03-01T08:28:39;11.40;;;7.38;;
78143;SDS011;67394;52.522;13.622;2023-03-01T08:31:26;8.88;;;6.45;;
78143;SDS011;67394;52.522;13.622;2023-03-01T08:33:55;10.75;;;6.32;;
78143;SDS011;67394;52.522;13.622;2023-03-01T08:36:24;12.18;;;7.07;;
78143;SDS011;67394;52.522;13.622;2023-03-01T08:38:51;11.70;;;6.57;;
78143;SDS011;67394;52.522;13.622;2023-03-01T08:41:18;9.75;;;6.32;;
78143;SDS011;67394;52.522;13.622;2023-03-01T08:43:45;13.95;;;7.88;;
78143;SDS011;67394;52.522;13.622;2023-03-01T08:46:12;10.55;;;6.90;;
78143;SDS011;67394;52.522;13.622;2023-03-01T08:48:39;10.15;;;6.13;;
78143;SDS011;67394;52.522;13.622;2023-03-01T08:53:36;11.57;;;6.63;;
78143;SDS011;67394;52.522;13.622;2023-03-01T08:56:02;9.98;;;6.07;;
78143;SDS011;67394;52.522;13.622;2023-03-01T08:58:29;11.50;;;6.05;;
78143;SDS011;67394;52.522;13.622;2023-03-01T09:00:55;8.45;;;5.45;;
78143;SDS011;67394;52.522;13.622;2023-03-01T09:03:23;11.02;;;5.15;;
78143;SDS011;67394;52.522;13.622;2023-03-01T09:05:50;8.23;;;4.95;;
78143;SDS011;67394;52.522;13.622;2023-03-01T09:10:44;7.68;;;4.75;;
78143;SDS011;67394;52.522;13.622;2023-03-01T09:13:10;7.13;;;4.07;;
78143;SDS011;67394;52.522;13.622;2023-03-01T09:15:37;9.40;;;4.95;;
78143;SDS011;67394;52.522;13.622;2023-03-01T09:20:31;6.90;;;3.67;;
78143;SDS011;67394;52.522;13.622;2023-03-01T09:22:58;9.00;;;4.25;;
78143;SDS011;67394;52.522;13.622;2023-03-01T09:25:24;6.75;;;4.45;;
78143;SDS011;67394;52.522;13.622;2023-03-01T09:27:51;7.25;;;4.18;;
78143;SDS011;67394;52.522;13.622;2023-03-01T09:30:18;8.65;;;4.15;;
78143;SDS011;67394;52.522;13.622;2023-03-01T09:32:45;9.40;;;4.80;;
78143;SDS011;67394;52.522;13.622;2023-03-01T09:35:12;6.13;;;4.03;;
78143;SDS011;67394;52.522;13.622;2023-03-01T09:37:39;6.40;;;4.20;;
78143;SDS011;67394;52.522;13.622;2023-03-01T09:40:05;8.60;;;3.83;;
78143;SDS011;67394;52.522;13.622;2023-03-01T09:45:02;6.57;;;3.42;;
78143;SDS011;67394;52.522;13.622;2023-03-01T09:47:40;6.15;;;2.78;;
78143;SDS011;67394;52.522;13.622;2023-03-01T09:50:14;6.00;;;3.40;;
78143;SDS011;67394;52.522;13.622;2023-03-01T09:52:46;6.72;;;3.03;;
78143;SDS011;67394;52.522;13.622;2023-03-01T09:55:17;5.45;;;3.17;;
78143;SDS011;67394;52.522;13.622;2023-03-01T09:57:55;4.78;;;2.88;;
78143;SDS011;67394;52.522;13.622;2023-03-01T10:00:30;5.00;;;2.95;;
78143;SDS011;67394;52.522;13.622;2023-03-01T10:03:08;5.78;;;2.97;;
78143;SDS011;67394;52.522;13.622;2023-03-01T10:10:58;5.63;;;2.60;;
78143;SDS011;67394;52.522;13.622;2023-03-01T10:16:12;4.57;;;2.58;;
78143;SDS011;67394;52.522;13.622;2023-03-01T10:18:43;6.20;;;2.58;;
78143;SDS011;67394;52.522;13.622;2023-03-01T10:21:15;4.43;;;3.00;;
78143;SDS011;67394;52.522;13.622;2023-03-01T10:23:45;7.80;;;3.47;;
78143;SDS011;67394;52.522;13.622;2023-03-01T10:29:11;5.90;;;3.20;;
78143;SDS011;67394;52.522;13.622;2023-03-01T10:32:00;6.25;;;2.72;;
78143;SDS011;67394;52.522;13.622;2023-03-01T10:34:33;3.78;;;2.40;;
78143;SDS011;67394;52.522;13.622;2023-03-01T10:37:11;5.68;;;2.97;;
78143;SDS011;67394;52.522;13.622;2023-03-01T10:39:54;5.93;;;3.30;;
78143;SDS011;67394;52.522;13.622;2023-03-01T10:42:30;5.32;;;3.10;;
78143;SDS011;67394;52.522;13.622;2023-03-01T10:45:02;4.60;;;2.92;;
78143;SDS011;67394;52.522;13.622;2023-03-01T10:47:43;5.20;;;3.28;;
78143;SDS011;67394;52.522;13.622;2023-03-01T10:50:20;6.55;;;3.15;;
78143;SDS011;67394;52.522;13.622;2023-03-01T10:52:58;5.55;;;2.83;;
78143;SDS011;67394;52.522;13.622;2023-03-01T10:55:36;5.25;;;2.40;;
78143;SDS011;67394;52.522;13.622;2023-03-01T10:58:19;4.68;;;2.80;;
78143;SDS011;67394;52.522;13.622;2023-03-01T11:00:52;3.90;;;2.72;;
78143;SDS011;67394;52.522;13.622;2023-03-01T11:03:24;4.65;;;3.10;;
78143;SDS011;67394;52.522;13.622;2023-03-01T11:08:36;4.57;;;2.63;;
78143;SDS011;67394;52.522;13.622;2023-03-01T11:16:45;5.80;;;2.30;;
78143;SDS011;67394;52.522;13.622;2023-03-01T11:21:41;5.30;;;2.63;;
78143;SDS011;67394;52.522;13.622;2023-03-01T11:24:16;3.42;;;1.92;;
78143;SDS011;67394;52.522;13.622;2023-03-01T11:26:50;3.83;;;2.20;;
78143;SDS011;67394;52.522;13.622;2023-03-01T11:29:27;5.50;;;2.30;;
78143;SDS011;67394;52.522;13.622;2023-03-01T11:32:13;4.32;;;2.25;;
78143;SDS011;67394;52.522;13.622;2023-03-01T11:34:48;3.40;;;2.08;;
78143;SDS011;67394;52.522;13.622;2023-03-01T11:37:26;4.25;;;2.30;;
78143;SDS011;67394;52.522;13.622;2023-03-01T11:39:59;5.18;;;2.65;;
78143;SDS011;67394;52.522;13.622;2023-03-01T11:45:16;3.70;;;2.33;;
78143;SDS011;67394;52.522;13.622;2023-03-01T11:50:49;3.30;;;1.80;;
78143;SDS011;67394;52.522;13.622;2023-03-01T11:59:44;4.35;;;2.13;;
78143;SDS011;67394;52.522;13.622;2023-03-01T12:05:12;5.45;;;2.70;;
78143;SDS011;67394;52.522;13.622;2023-03-01T12:08:10;3.95;;;2.10;;
78143;SDS011;67394;52.522;13.622;2023-03-01T12:36:09;4.45;;;2.70;;
78143;SDS011;67394;52.522;13.622;2023-03-01T12:38:32;4.75;;;3.00;;
78143;SDS011;67394;52.522;13.622;2023-03-01T12:41:21;5.13;;;3.00;;
78143;SDS011;67394;52.522;13.622;2023-03-01T12:44:01;4.47;;;2.80;;
78143;SDS011;67394;52.522;13.622;2023-03-01T12:49:30;4.07;;;2.58;;
78143;SDS011;67394;52.522;13.622;2023-03-01T12:52:21;5.38;;;2.60;;
78143;SDS011;67394;52.522;13.622;2023-03-01T12:54:55;4.68;;;3.10;;
78143;SDS011;67394;52.522;13.622;2023-03-01T13:02:35;4.28;;;2.85;;
78143;SDS011;67394;52.522;13.622;2023-03-01T13:05:23;4.80;;;2.90;;
78143;SDS011;67394;52.522;13.622;2023-03-01T13:08:15;4.78;;;2.63;;
78143;SDS011;67394;52.522;13.622;2023-03-01T13:11:00;5.25;;;2.85;;
78143;SDS011;67394;52.522;13.622;2023-03-01T13:13:29;3.03;;;2.42;;
78143;SDS011;67394;52.522;13.622;2023-03-01T13:15:56;4.88;;;2.40;;
78143;SDS011;67394;52.522;13.622;2023-03-01T13:20:50;4.78;;;2.38;;
78143;SDS011;67394;52.522;13.622;2023-03-01T13:31:11;4.10;;;2.50;;
78143;SDS011;67394;52.522;13.622;2023-03-01T13:33:59;4.68;;;2.60;;
78143;SDS011;67394;52.522;13.622;2023-03-01T13:38:57;3.28;;;2.45;;
78143;SDS011;67394;52.522;13.622;2023-03-01T13:46:49;6.00;;;2.20;;
78143;SDS011;67394;52.522;13.622;2023-03-01T13:49:19;3.65;;;2.38;;
78143;SDS011;67394;52.522;13.622;2023-03-01T13:51:48;3.83;;;2.30;;
78143;SDS011;67394;52.522;13.622;2023-03-01T13:54:17;4.28;;;2.10;;
78143;SDS011;67394;52.522;13.622;2023-03-01T13:56:52;3.00;;;2.20;;
78143;SDS011;67394;52.522;13.622;2023-03-01T13:59:21;5.57;;;2.25;;
78143;SDS011;67394;52.522;13.622;2023-03-01T14:01:52;3.75;;;1.98;;
78143;SDS011;67394;52.522;13.622;2023-03-01T14:04:27;4.15;;;1.95;;
78143;SDS011;67394;52.522;13.622;2023-03-01T14:09:45;3.85;;;2.35;;
78143;SDS011;67394;52.522;13.622;2023-03-01T14:20:22;3.20;;;2.03;;
78143;SDS011;67394;52.522;13.622;2023-03-01T14:22:49;3.35;;;2.03;;
78143;SDS011;67394;52.522;13.622;2023-03-01T14:25:24;4.15;;;2.10;;
78143;SDS011;67394;52.522;13.622;2023-03-01T14:27:57;2.72;;;1.83;;
78143;SDS011;67394;52.522;13.622;2023-03-01T14:30:37;3.38;;;2.20;;
78143;SDS011;67394;52.522;13.622;2023-03-01T14:33:18;4.20;;;3.10;;
78143;SDS011;67394;52.522;13.622;2023-03-01T14:36:25;2.25;;;1.58;;
78143;SDS011;67394;52.522;13.622;2023-03-01T14:38:51;2.90;;;1.50;;
78143;SDS011;67394;52.522;13.622;2023-03-01T14:41:21;3.03;;;1.95;;
78143;SDS011;67394;52.522;13.622;2023-03-01T14:43:50;3.88;;;1.73;;
78143;SDS011;67394;52.522;13.622;2023-03-01T14:46:35;2.60;;;1.60;;
78143;SDS011;67394;52.522;13.622;2023-03-01T14:49:05;2.53;;;1.83;;
78143;SDS011;67394;52.522;13.622;2023-03-01T14:51:38;3.67;;;1.92;;
78143;SDS011;67394;52.522;13.622;2023-03-01T14:54:20;2.20;;;1.60;;
78143;SDS011;67394;52.522;13.622;2023-03-01T14:56:47;4.05;;;1.70;;
78143;SDS011;67394;52.522;13.622;2023-03-01T14:59:13;2.50;;;1.63;;
78143;SDS011;67394;52.522;13.622;2023-03-01T15:01:40;2.78;;;1.65;;
78143;SDS011;67394;52.522;13.622;2023-03-01T15:04:10;3.42;;;1.70;;
78143;SDS011;67394;52.522;13.622;2023-03-01T15:06:38;3.05;;;1.85;;
78143;SDS011;67394;52.522;13.622;2023-03-01T15:09:05;4.07;;;1.83;;
78143;SDS011;67394;52.522;13.622;2023-03-01T15:11:33;2.70;;;1.45;;
78143;SDS011;67394;52.522;13.622;2023-03-01T15:13:59;4.22;;;2.17;;
78143;SDS011;67394;52.522;13.622;2023-03-01T15:16:26;3.42;;;1.90;;
78143;SDS011;67394;52.522;13.622;2023-03-01T15:18:58;2.75;;;1.90;;
78143;SDS011;67394;52.522;13.622;2023-03-01T15:24:17;3.15;;;1.90;;
78143;SDS011;67394;52.522;13.622;2023-03-01T15:26:58;3.92;;;2.03;;
78143;SDS011;67394;52.522;13.622;2023-03-01T15:29:27;3.80;;;2.50;;
78143;SDS011;67394;52.522;13.622;2023-03-01T15:32:05;3.40;;;2.08;;
78143;SDS011;67394;52.522;13.622;2023-03-01T15:34:50;3.95;;;2.25;;
78143;SDS011;67394;52.522;13.622;2023-03-01T15:40:28;3.30;;;2.05;;
78143;SDS011;67394;52.522;13.622;2023-03-01T15:42:55;4.72;;;1.92;;
78143;SDS011;67394;52.522;13.622;2023-03-01T15:45:23;4.20;;;2.17;;
78143;SDS011;67394;52.522;13.622;2023-03-01T15:47:52;3.75;;;2.33;;
78143;SDS011;67394;52.522;13.622;2023-03-01T15:50:24;3.22;;;2.10;;
78143;SDS011;67394;52.522;13.622;2023-03-01T15:52:53;5.60;;;2.58;;
78143;SDS011;67394;52.522;13.622;2023-03-01T15:55:21;5.72;;;2.88;;
78143;SDS011;67394;52.522;13.622;2023-03-01T15:57:49;4.00;;;2.22;;
78143;SDS011;67394;52.522;13.622;2023-03-01T16:00:16;5.47;;;2.47;;
78143;SDS011;67394;52.522;13.622;2023-03-01T16:02:45;4.53;;;2.45;;
78143;SDS011;67394;52.522;13.622;2023-03-01T16:05:17;4.32;;;2.55;;
78143;SDS011;67394;52.522;13.622;2023-03-01T16:07:48;3.60;;;2.22;;
78143;SDS011;67394;52.522;13.622;2023-03-01T16:10:15;4.75;;;2.53;;
78143;SDS011;67394;52.522;13.622;2023-03-01T16:12:42;3.85;;;2.60;;
78143;SDS011;67394;52.522;13.622;2023-03-01T16:15:13;3.92;;;2.20;;
78143;SDS011;67394;52.522;13.622;2023-03-01T16:18:02;4.63;;;2.50;;
78143;SDS011;67394;52.522;13.622;2023-03-01T16:20:29;4.95;;;2.53;;
78143;SDS011;67394;52.522;13.622;2023-03-01T16:22:59;3.30;;;2.10;;
78143;SDS011;67394;52.522;13.622;2023-03-01T16:25:28;5.03;;;2.30;;
78143;SDS011;67394;52.522;13.622;2023-03-01T16:27:55;3.72;;;2.47;;
78143;SDS011;67394;52.522;13.622;2023-03-01T16:30:22;3.78;;;2.28;;
78143;SDS011;67394;52.522;13.622;2023-03-01T16:32:49;4.53;;;2.20;;
78143;SDS011;67394;52.522;13.622;2023-03-01T16:35:17;4.38;;;2.50;;
78143;SDS011;67394;52.522;13.622;2023-03-01T16:37:47;4.68;;;2.30;;
78143;SDS011;67394;52.522;13.622;2023-03-01T16:42:45;4.43;;;2.55;;
78143;SDS011;67394;52.522;13.622;2023-03-01T16:45:13;6.07;;;2.60;;
78143;SDS011;67394;52.522;13.622;2023-03-01T16:47:49;6.88;;;2.60;;
78143;SDS011;67394;52.522;13.622;2023-03-01T16:50:17;4.03;;;2.50;;
78143;SDS011;67394;52.522;13.622;2023-03-01T16:52:44;4.45;;;2.70;;
78143;SDS011;67394;52.522;13.622;2023-03-01T16:55:10;4.28;;;2.40;;
78143;SDS011;67394;52.522;13.622;2023-03-01T16:57:37;4.13;;;2.75;;